Time,TemperatureF,DewpointF,PressureIn,WindDirection,WindDirectionDegrees,WindSpeedMPH,WindSpeedGustMPH,Humidity,HourlyPrecipIn,Conditions,Clouds,dailyrainin,SoftwareType,DateUTC
2013-06-07 00:07:00,65.1,59.0,29.81,SE,125,2.0,4.0,81,0.00,,,0.00,weatherlink.com 1.10,2013-06-07 04:07:00,
2013-06-07 00:22:00,64.5,59.0,29.81,SSE,150,2.0,3.0,82,0.00,,,0.00,weatherlink.com 1.10,2013-06-07 04:22:00,
2013-06-07 00:37:00,64.1,59.0,29.80,ESE,112,2.0,3.0,83,0.00,,,0.00,weatherlink.com 1.10,2013-06-07 04:37:00,
2013-06-07 00:52:00,63.9,59.0,29.80,East,94,3.0,6.0,83,0.00,,,0.00,weatherlink.com 1.10,2013-06-07 04:52:00,
2013-06-07 01:07:00,63.2,58.0,29.80,East,98,4.0,5.0,84,0.00,,,0.00,weatherlink.com 1.10,2013-06-07 05:07:00,
2013-06-07 01:22:00,62.9,58.0,29.80,East,85,3.0,7.0,85,0.00,,,0.00,weatherlink.com 1.10,2013-06-07 05:22:00,
2013-06-07 01:37:00,62.4,58.0,29.80,East,93,3.0,7.0,85,0.00,,,0.00,weatherlink.com 1.10,2013-06-07 05:37:00,
2013-06-07 01:52:00,62.0,58.0,29.80,East,83,4.0,7.0,85,0.00,,,0.00,weatherlink.com 1.10,2013-06-07 05:52:00,
2013-06-07 02:07:00,61.7,57.0,29.80,East,87,3.0,6.0,84,0.00,,,0.00,weatherlink.com 1.10,2013-06-07 06:07:00,
2013-06-07 02:22:00,61.4,57.0,29.80,East,84,5.0,6.0,84,0.00,,,0.00,weatherlink.com 1.10,2013-06-07 06:22:00,
2013-06-07 02:37:00,61.0,56.0,29.80,East,85,3.0,5.0,84,0.00,,,0.00,weatherlink.com 1.10,2013-06-07 06:37:00,
2013-06-07 02:52:00,60.5,56.0,29.79,ENE,78,4.0,5.0,85,0.00,,,0.00,weatherlink.com 1.10,2013-06-07 06:52:00,
2013-06-07 03:07:00,60.3,56.0,29.80,ESE,113,3.0,5.0,86,0.00,,,0.00,weatherlink.com 1.10,2013-06-07 07:07:00,
2013-06-07 03:22:00,60.1,56.0,29.80,East,86,2.0,5.0,86,0.00,,,0.00,weatherlink.com 1.10,2013-06-07 07:22:00,
2013-06-07 03:37:00,59.9,56.0,29.80,East,84,2.0,3.0,86,0.00,,,0.00,weatherlink.com 1.10,2013-06-07 07:37:00,
2013-06-07 03:53:00,59.7,56.0,29.80,East,94,4.0,7.0,86,0.00,,,0.00,weatherlink.com 1.10,2013-06-07 07:53:00,
2013-06-07 04:08:00,59.5,55.0,29.80,East,79,5.0,6.0,86,0.00,,,0.00,weatherlink.com 1.10,2013-06-07 08:08:00,
2013-06-07 04:23:00,59.3,55.0,29.80,East,84,2.0,6.0,86,0.00,,,0.00,weatherlink.com 1.10,2013-06-07 08:23:00,
2013-06-07 04:38:00,59.1,55.0,29.80,East,98,3.0,4.0,87,0.00,,,0.00,weatherlink.com 1.10,2013-06-07 08:38:00,
2013-06-07 04:53:00,58.9,55.0,29.80,ENE,78,4.0,6.0,87,0.00,,,0.00,weatherlink.com 1.10,2013-06-07 08:53:00,
2013-06-07 05:08:00,58.7,55.0,29.80,ESE,106,2.0,5.0,87,0.00,,,0.00,weatherlink.com 1.10,2013-06-07 09:08:00,
2013-06-07 05:23:00,58.8,55.0,29.81,NE,56,1.0,4.0,88,0.00,,,0.00,weatherlink.com 1.10,2013-06-07 09:23:00,
2013-06-07 05:38:00,58.5,55.0,29.80,East,83,4.0,4.0,88,0.00,,,0.00,weatherlink.com 1.10,2013-06-07 09:38:00,
2013-06-07 05:53:00,58.2,55.0,29.81,East,93,2.0,5.0,88,0.00,,,0.00,weatherlink.com 1.10,2013-06-07 09:53:00,
2013-06-07 06:08:00,58.0,55.0,29.81,East,98,3.0,5.0,89,0.00,,,0.00,weatherlink.com 1.10,2013-06-07 10:08:00,
2013-06-07 06:23:00,57.8,55.0,29.81,East,80,3.0,5.0,89,0.00,,,0.00,weatherlink.com 1.10,2013-06-07 10:23:00,
2013-06-07 06:38:00,57.7,55.0,29.81,ENE,74,3.0,4.0,90,0.00,,,0.00,weatherlink.com 1.10,2013-06-07 10:38:00,
2013-06-07 06:53:00,57.6,55.0,29.81,East,82,3.0,5.0,90,0.00,,,0.00,weatherlink.com 1.10,2013-06-07 10:53:00,
2013-06-07 07:08:00,57.7,55.0,29.81,East,88,5.0,6.0,90,0.00,,,0.00,weatherlink.com 1.10,2013-06-07 11:08:00,
2013-06-07 07:23:00,58.0,55.0,29.81,East,84,5.0,6.0,89,0.00,,,0.00,weatherlink.com 1.10,2013-06-07 11:23:00,
2013-06-07 07:38:00,58.8,55.0,29.81,ENE,71,5.0,5.0,88,0.00,,,0.00,weatherlink.com 1.10,2013-06-07 11:38:00,
2013-06-07 07:54:00,58.9,55.0,29.81,ENE,72,4.0,7.0,87,0.00,,,0.00,weatherlink.com 1.10,2013-06-07 11:54:00,
2013-06-07 08:08:00,59.3,55.0,29.80,ENE,63,6.0,7.0,86,0.00,,,0.00,weatherlink.com 1.10,2013-06-07 12:08:00,
2013-06-07 08:23:00,59.7,55.0,29.81,ENE,69,4.0,8.0,85,0.00,,,0.00,weatherlink.com 1.10,2013-06-07 12:23:00,
2013-06-07 08:38:00,60.4,55.0,29.82,ENE,70,5.0,7.0,83,0.00,,,0.00,weatherlink.com 1.10,2013-06-07 12:38:00,
2013-06-07 08:53:00,60.9,56.0,29.82,East,80,5.0,8.0,83,0.00,,,0.00,weatherlink.com 1.10,2013-06-07 12:53:00,
2013-06-07 09:08:00,61.4,56.0,29.82,NE,45,3.0,8.0,82,0.00,,,0.00,weatherlink.com 1.10,2013-06-07 13:08:00,
2013-06-07 09:23:00,61.3,56.0,29.83,East,95,4.0,7.0,83,0.00,,,0.00,weatherlink.com 1.10,2013-06-07 13:23:00,
2013-06-07 09:38:00,61.9,56.0,29.82,ENE,78,5.0,8.0,82,0.00,,,0.00,weatherlink.com 1.10,2013-06-07 13:38:00,
2013-06-07 09:53:00,63.0,57.0,29.83,NNE,29,4.0,7.0,80,0.00,,,0.00,weatherlink.com 1.10,2013-06-07 13:53:00,
2013-06-07 10:08:00,63.1,57.0,29.83,NNE,13,5.0,7.0,80,0.00,,,0.00,weatherlink.com 1.10,2013-06-07 14:08:00,
2013-06-07 10:23:00,64.3,57.0,29.83,NNE,30,3.0,8.0,78,0.00,,,0.00,weatherlink.com 1.10,2013-06-07 14:23:00,
2013-06-07 10:38:00,64.6,57.0,29.82,East,87,4.0,7.0,76,0.00,,,0.00,weatherlink.com 1.10,2013-06-07 14:38:00,
2013-06-07 10:53:00,65.4,57.0,29.83,ENE,68,4.0,8.0,75,0.00,,,0.00,weatherlink.com 1.10,2013-06-07 14:53:00,
2013-06-07 11:08:00,65.7,58.0,29.83,ESE,111,4.0,8.0,75,0.00,,,0.00,weatherlink.com 1.10,2013-06-07 15:08:00,
2013-06-07 11:23:00,66.2,58.0,29.83,East,94,5.0,7.0,74,0.00,,,0.00,weatherlink.com 1.10,2013-06-07 15:23:00,
2013-06-07 11:38:00,67.4,58.0,29.83,ENE,75,6.0,10.0,72,0.00,,,0.00,weatherlink.com 1.10,2013-06-07 15:38:00,
2013-06-07 11:53:00,67.7,58.0,29.82,East,91,5.0,9.0,70,0.00,,,0.00,weatherlink.com 1.10,2013-06-07 15:53:00,
2013-06-07 12:08:00,68.1,58.0,29.82,NE,51,3.0,10.0,71,0.00,,,0.00,weatherlink.com 1.10,2013-06-07 16:08:00,
2013-06-07 12:23:00,68.6,58.0,29.82,East,89,9.0,10.0,69,0.00,,,0.00,weatherlink.com 1.10,2013-06-07 16:23:00,
2013-06-07 12:38:00,68.5,57.0,29.82,ENE,65,1.0,9.0,68,0.00,,,0.00,weatherlink.com 1.10,2013-06-07 16:38:00,
2013-06-07 12:53:00,69.3,58.0,29.82,North,9,9.0,9.0,68,0.00,,,0.00,weatherlink.com 1.10,2013-06-07 16:53:00,
2013-06-07 13:08:00,70.4,58.0,29.82,NNE,26,5.0,10.0,65,0.00,,,0.00,weatherlink.com 1.10,2013-06-07 17:08:00,
2013-06-07 13:23:00,70.8,58.0,29.81,ENE,75,2.0,8.0,65,0.00,,,0.00,weatherlink.com 1.10,2013-06-07 17:23:00,
2013-06-07 13:38:00,71.0,58.0,29.82,North,357,4.0,10.0,63,0.00,,,0.00,weatherlink.com 1.10,2013-06-07 17:38:00,
2013-06-07 13:54:00,71.0,57.0,29.81,NNW,338,2.0,9.0,61,0.00,,,0.00,weatherlink.com 1.10,2013-06-07 17:54:00,
2013-06-07 14:09:00,71.5,56.0,29.81,NNE,13,6.0,8.0,59,0.00,,,0.00,weatherlink.com 1.10,2013-06-07 18:09:00,
2013-06-07 14:39:00,72.6,57.0,29.81,NE,53,5.0,10.0,59,0.00,,,0.00,weatherlink.com 1.10,2013-06-07 18:39:00,
2013-06-07 14:54:00,72.8,56.0,29.81,North,8,6.0,10.0,56,0.00,,,0.00,weatherlink.com 1.10,2013-06-07 18:54:00,
2013-06-07 15:09:00,73.0,55.0,29.80,NNE,13,7.0,12.0,54,0.00,,,0.00,weatherlink.com 1.10,2013-06-07 19:09:00,
2013-06-07 15:24:00,73.6,56.0,29.80,NW,316,7.0,11.0,54,0.00,,,0.00,weatherlink.com 1.10,2013-06-07 19:24:00,
2013-06-07 15:39:00,72.8,55.0,29.80,NE,46,4.0,11.0,54,0.00,,,0.00,weatherlink.com 1.10,2013-06-07 19:39:00,
2013-06-07 15:54:00,73.2,55.0,29.80,North,355,4.0,13.0,53,0.00,,,0.00,weatherlink.com 1.10,2013-06-07 19:54:00,
2013-06-07 16:09:00,72.7,54.0,29.80,NE,45,9.0,12.0,53,0.00,,,0.00,weatherlink.com 1.10,2013-06-07 20:09:00,
2013-06-07 16:24:00,72.7,55.0,29.79,North,356,3.0,11.0,55,0.00,,,0.00,weatherlink.com 1.10,2013-06-07 20:24:00,
2013-06-07 16:39:00,72.6,56.0,29.79,NNE,30,10.0,10.0,56,0.00,,,0.00,weatherlink.com 1.10,2013-06-07 20:39:00,
2013-06-07 16:54:00,72.2,55.0,29.79,North,11,6.0,9.0,56,0.00,,,0.00,weatherlink.com 1.10,2013-06-07 20:54:00,
2013-06-07 17:24:00,71.5,55.0,29.80,North,356,8.0,11.0,57,0.00,,,0.00,weatherlink.com 1.10,2013-06-07 21:24:00,
2013-06-07 17:54:00,70.8,55.0,29.80,NNE,13,6.0,10.0,58,0.00,,,0.00,weatherlink.com 1.10,2013-06-07 21:54:00,
2013-06-07 18:09:00,70.9,55.0,29.80,NNE,25,6.0,10.0,58,0.00,,,0.00,weatherlink.com 1.10,2013-06-07 22:09:00,
2013-06-07 18:24:00,71.0,56.0,29.80,NNW,344,6.0,9.0,59,0.00,,,0.00,weatherlink.com 1.10,2013-06-07 22:24:00,
2013-06-07 18:39:00,70.9,55.0,29.80,NNW,335,7.0,10.0,58,0.00,,,0.00,weatherlink.com 1.10,2013-06-07 22:39:00,
2013-06-07 19:09:00,70.8,55.0,29.80,NNW,342,4.0,7.0,58,0.00,,,0.00,weatherlink.com 1.10,2013-06-07 23:09:00,
2013-06-07 19:24:00,70.4,55.0,29.81,NE,34,3.0,5.0,59,0.00,,,0.00,weatherlink.com 1.10,2013-06-07 23:24:00,
2013-06-07 19:39:00,70.4,55.0,29.81,NNE,31,1.0,3.0,59,0.00,,,0.00,weatherlink.com 1.10,2013-06-07 23:39:00,
2013-06-07 19:54:00,70.2,55.0,29.81,NNE,18,2.0,3.0,59,0.00,,,0.00,weatherlink.com 1.10,2013-06-07 23:54:00,
2013-06-07 20:09:00,70.1,55.0,29.82,NNE,30,2.0,3.0,60,0.00,,,0.00,weatherlink.com 1.10,2013-06-08 00:09:00,
2013-06-07 20:25:00,70.0,56.0,29.81,NNW,329,1.0,2.0,61,0.00,,,0.00,weatherlink.com 1.10,2013-06-08 00:25:00,
2013-06-07 20:39:00,69.7,56.0,29.82,NW,323,1.0,2.0,63,0.00,,,0.00,weatherlink.com 1.10,2013-06-08 00:39:00,
2013-06-07 20:54:00,69.4,56.0,29.82,NW,325,1.0,2.0,62,0.00,,,0.00,weatherlink.com 1.10,2013-06-08 00:54:00,
2013-06-07 21:09:00,69.2,56.0,29.82,NW,325,1.0,2.0,63,0.00,,,0.00,weatherlink.com 1.10,2013-06-08 01:09:00,
2013-06-07 21:24:00,68.9,58.0,29.82,NW,326,1.0,2.0,68,0.00,,,0.00,weatherlink.com 1.10,2013-06-08 01:24:00,
2013-06-07 21:39:00,68.4,57.0,29.82,NNW,347,2.0,3.0,68,0.00,,,0.00,weatherlink.com 1.10,2013-06-08 01:39:00,
2013-06-07 21:54:00,68.3,57.0,29.83,NNW,338,3.0,3.0,68,0.00,,,0.00,weatherlink.com 1.10,2013-06-08 01:54:00,
2013-06-07 22:09:00,67.5,58.0,29.83,NNW,336,2.0,4.0,72,0.00,,,0.00,weatherlink.com 1.10,2013-06-08 02:09:00,
2013-06-07 22:24:00,67.3,58.0,29.84,North,360,2.0,3.0,72,0.00,,,0.00,weatherlink.com 1.10,2013-06-08 02:24:00,
2013-06-07 22:39:00,67.7,58.0,29.84,North,349,2.0,3.0,70,0.00,,,0.00,weatherlink.com 1.10,2013-06-08 02:39:00,
2013-06-07 22:54:00,67.7,57.0,29.85,NNE,25,1.0,3.0,69,0.00,,,0.00,weatherlink.com 1.10,2013-06-08 02:54:00,
2013-06-07 23:09:00,67.6,56.0,29.85,ENE,78,3.0,4.0,67,0.00,,,0.00,weatherlink.com 1.10,2013-06-08 03:09:00,
2013-06-07 23:24:00,67.3,56.0,29.85,ENE,77,2.0,3.0,68,0.00,,,0.00,weatherlink.com 1.10,2013-06-08 03:24:00,
2013-06-07 23:39:00,66.8,56.0,29.86,East,79,2.0,5.0,69,0.00,,,0.00,weatherlink.com 1.10,2013-06-08 03:39:00,
2013-06-07 23:54:00,66.2,56.0,29.86,East,95,3.0,5.0,70,0.00,,,0.00,weatherlink.com 1.10,2013-06-08 03:54:00,